sensor_id;sensor_type;location;lat;lon;timestamp;P1;durP1;ratioP1;P2;durP2;ratioP2
42802;SDS011;28447;48.682;9.022;2023-10-13T04:00:26;6.83;;;4.70;;
42802;SDS011;28447;48.682;9.022;2023-10-13T04:02:53;8.77;;;5.07;;
42802;SDS011;28447;48.682;9.022;2023-10-13T04:05:39;9.33;;;5.93;;
42802;SDS011;28447;48.682;9.022;2023-10-13T04:08:11;11.43;;;5.67;;
42802;SDS011;28447;48.682;9.022;2023-10-13T04:10:53;10.03;;;5.40;;
42802;SDS011;28447;48.682;9.022;2023-10-13T04:13:19;13.10;;;6.37;;
42802;SDS011;28447;48.682;9.022;2023-10-13T04:16:06;7.10;;;4.87;;
42802;SDS011;28447;48.682;9.022;2023-10-13T04:18:48;7.60;;;5.40;;
42802;SDS011;28447;48.682;9.022;2023-10-13T04:21:23;8.23;;;5.43;;
42802;SDS011;28447;48.682;9.022;2023-10-13T04:24:08;10.00;;;5.03;;
42802;SDS011;28447;48.682;9.022;2023-10-13T04:26:43;14.70;;;6.10;;
42802;SDS011;28447;48.682;9.022;2023-10-13T04:29:28;8.80;;;5.50;;
42802;SDS011;28447;48.682;9.022;2023-10-13T04:32:15;7.60;;;5.20;;
42802;SDS011;28447;48.682;9.022;2023-10-13T04:34:53;9.30;;;5.40;;
42802;SDS011;28447;48.682;9.022;2023-10-13T04:37:23;6.63;;;5.50;;
42802;SDS011;28447;48.682;9.022;2023-10-13T04:39:57;12.60;;;5.17;;
42802;SDS011;28447;48.682;9.022;2023-10-13T04:42:36;13.70;;;5.23;;
42802;SDS011;28447;48.682;9.022;2023-10-13T04:45:18;8.90;;;5.20;;
42802;SDS011;28447;48.682;9.022;2023-10-13T04:47:56;8.70;;;4.80;;
42802;SDS011;28447;48.682;9.022;2023-10-13T04:50:23;8.73;;;5.17;;
42802;SDS011;28447;48.682;9.022;2023-10-13T04:53:00;12.23;;;5.40;;
42802;SDS011;28447;48.682;9.022;2023-10-13T04:55:27;8.47;;;5.47;;
42802;SDS011;28447;48.682;9.022;2023-10-13T04:57:58;8.60;;;4.97;;
42802;SDS011;28447;48.682;9.022;2023-10-13T05:01:00;10.50;;;5.20;;
42802;SDS011;28447;48.682;9.022;2023-10-13T05:03:45;11.93;;;5.30;;
42802;SDS011;28447;48.682;9.022;2023-10-13T05:06:31;8.90;;;5.47;;
42802;SDS011;28447;48.682;9.022;2023-10-13T05:09:06;8.83;;;5.77;;
42802;SDS011;28447;48.682;9.022;2023-10-13T05:11:51;8.17;;;5.87;;
42802;SDS011;28447;48.682;9.022;2023-10-13T05:14:36;9.93;;;6.13;;
42802;SDS011;28447;48.682;9.022;2023-10-13T05:17:20;10.67;;;5.73;;
42802;SDS011;28447;48.682;9.022;2023-10-13T05:20:05;16.83;;;5.80;;
42802;SDS011;28447;48.682;9.022;2023-10-13T05:22:50;7.93;;;5.33;;
42802;SDS011;28447;48.682;9.022;2023-10-13T05:25:35;7.03;;;5.30;;
42802;SDS011;28447;48.682;9.022;2023-10-13T05:28:20;11.40;;;5.63;;
42802;SDS011;28447;48.682;9.022;2023-10-13T05:31:06;10.57;;;6.30;;
42802;SDS011;28447;48.682;9.022;2023-10-13T05:33:51;11.30;;;6.00;;
42802;SDS011;28447;48.682;9.022;2023-10-13T05:36:36;7.80;;;6.10;;
42802;SDS011;28447;48.682;9.022;2023-10-13T05:39:20;11.80;;;6.23;;
42802;SDS011;28447;48.682;9.022;2023-10-13T05:42:05;12.83;;;6.40;;
42802;SDS011;28447;48.682;9.022;2023-10-13T05:44:50;10.77;;;5.50;;
42802;SDS011;28447;48.682;9.022;2023-10-13T05:47:34;15.10;;;6.33;;
42802;SDS011;28447;48.682;9.022;2023-10-13T05:50:04;9.30;;;6.00;;
42802;SDS011;28447;48.682;9.022;2023-10-13T05:52:38;10.63;;;5.70;;
42802;SDS011;28447;48.682;9.022;2023-10-13T05:55:24;12.20;;;5.87;;
42802;SDS011;28447;48.682;9.022;2023-10-13T05:58:08;8.50;;;5.80;;
42802;SDS011;28447;48.682;9.022;2023-10-13T06:00:53;10.07;;;6.10;;
42802;SDS011;28447;48.682;9.022;2023-10-13T06:03:37;7.30;;;5.40;;
42802;SDS011;28447;48.682;9.022;2023-10-13T06:06:22;10.30;;;5.20;;
42802;SDS011;28447;48.682;9.022;2023-10-13T06:09:06;11.60;;;6.13;;
42802;SDS011;28447;48.682;9.022;2023-10-13T06:11:51;13.43;;;6.03;;
42802;SDS011;28447;48.682;9.022;2023-10-13T06:14:35;7.63;;;5.60;;
42802;SDS011;28447;48.682;9.022;2023-10-13T06:17:20;8.47;;;5.43;;
42802;SDS011;28447;48.682;9.022;2023-10-13T06:20:05;8.80;;;5.27;;
42802;SDS011;28447;48.682;9.022;2023-10-13T06:22:50;12.83;;;6.43;;
42802;SDS011;28447;48.682;9.022;2023-10-13T06:25:35;9.83;;;5.60;;
42802;SDS011;28447;48.682;9.022;2023-10-13T06:28:19;10.23;;;6.00;;
42802;SDS011;28447;48.682;9.022;2023-10-13T06:31:04;11.77;;;5.83;;
42802;SDS011;28447;48.682;9.022;2023-10-13T06:33:37;8.33;;;5.90;;
42802;SDS011;28447;48.682;9.022;2023-10-13T06:36:10;11.60;;;6.30;;
42802;SDS011;28447;48.682;9.022;2023-10-13T06:38:36;8.20;;;5.00;;
42802;SDS011;28447;48.682;9.022;2023-10-13T06:41:05;12.63;;;6.17;;
42802;SDS011;28447;48.682;9.022;2023-10-13T06:43:32;8.30;;;5.70;;
42802;SDS011;28447;48.682;9.022;2023-10-13T06:46:04;9.57;;;5.80;;
42802;SDS011;28447;48.682;9.022;2023-10-13T06:48:30;9.20;;;5.00;;
42802;SDS011;28447;48.682;9.022;2023-10-13T06:51:00;8.80;;;5.83;;
42802;SDS011;28447;48.682;9.022;2023-10-13T06:53:49;9.30;;;5.30;;
42802;SDS011;28447;48.682;9.022;2023-10-13T06:56:21;6.90;;;5.53;;
42802;SDS011;28447;48.682;9.022;2023-10-13T06:58:50;8.20;;;5.30;;
42802;SDS011;28447;48.682;9.022;2023-10-13T07:01:16;9.10;;;5.60;;
42802;SDS011;28447;48.682;9.022;2023-10-13T07:03:47;15.00;;;6.13;;
42802;SDS011;28447;48.682;9.022;2023-10-13T07:06:18;11.90;;;5.57;;
42802;SDS011;28447;48.682;9.022;2023-10-13T07:08:45;8.53;;;5.60;;
42802;SDS011;28447;48.682;9.022;2023-10-13T07:11:16;9.83;;;5.17;;
42802;SDS011;28447;48.682;9.022;2023-10-13T07:13:58;12.37;;;5.57;;
42802;SDS011;28447;48.682;9.022;2023-10-13T07:16:23;14.20;;;6.30;;
42802;SDS011;28447;48.682;9.022;2023-10-13T07:18:49;10.13;;;6.07;;
42802;SDS011;28447;48.682;9.022;2023-10-13T07:21:18;7.97;;;5.40;;
42802;SDS011;28447;48.682;9.022;2023-10-13T07:23:54;12.27;;;6.03;;
42802;SDS011;28447;48.682;9.022;2023-10-13T07:26:33;12.23;;;5.60;;
42802;SDS011;28447;48.682;9.022;2023-10-13T07:28:59;8.80;;;5.20;;
42802;SDS011;28447;48.682;9.022;2023-10-13T07:31:25;9.33;;;5.60;;
42802;SDS011;28447;48.682;9.022;2023-10-13T07:33:52;10.67;;;5.83;;
42802;SDS011;28447;48.682;9.022;2023-10-13T07:36:28;11.60;;;6.23;;
42802;SDS011;28447;48.682;9.022;2023-10-13T07:38:59;9.43;;;5.40;;
42802;SDS011;28447;48.682;9.022;2023-10-13T07:41:46;6.53;;;4.90;;
42802;SDS011;28447;48.682;9.022;2023-10-13T07:44:16;14.60;;;5.30;;
42802;SDS011;28447;48.682;9.022;2023-10-13T07:46:45;6.87;;;4.70;;
42802;SDS011;28447;48.682;9.022;2023-10-13T07:49:14;10.20;;;5.73;;
42802;SDS011;28447;48.682;9.022;2023-10-13T07:51:40;11.27;;;5.87;;
42802;SDS011;28447;48.682;9.022;2023-10-13T07:54:12;16.23;;;5.57;;
42802;SDS011;28447;48.682;9.022;2023-10-13T07:56:46;9.40;;;5.00;;
42802;SDS011;28447;48.682;9.022;2023-10-13T07:59:13;10.10;;;4.83;;
42802;SDS011;28447;48.682;9.022;2023-10-13T08:01:42;8.57;;;4.70;;
42802;SDS011;28447;48.682;9.022;2023-10-13T08:04:08;6.70;;;4.10;;
42802;SDS011;28447;48.682;9.022;2023-10-13T08:06:38;10.60;;;4.90;;
42802;SDS011;28447;48.682;9.022;2023-10-13T08:09:08;7.70;;;4.77;;
42802;SDS011;28447;48.682;9.022;2023-10-13T08:11:37;9.53;;;4.83;;
42802;SDS011;28447;48.682;9.022;2023-10-13T08:14:05;9.00;;;5.40;;
42802;SDS011;28447;48.682;9.022;2023-10-13T08:16:42;8.60;;;4.83;;
42802;SDS011;28447;48.682;9.022;2023-10-13T08:19:21;13.63;;;5.67;;
42802;SDS011;28447;48.682;9.022;2023-10-13T08:21:52;8.83;;;5.03;;
42802;SDS011;28447;48.682;9.022;2023-10-13T08:24:22;10.23;;;4.90;;
42802;SDS011;28447;48.682;9.022;2023-10-13T08:27:05;11.43;;;4.93;;
42802;SDS011;28447;48.682;9.022;2023-10-13T08:29:46;8.70;;;4.57;;
42802;SDS011;28447;48.682;9.022;2023-10-13T08:32:19;11.70;;;5.00;;
42802;SDS011;28447;48.682;9.022;2023-10-13T08:35:01;11.07;;;5.53;;
42802;SDS011;28447;48.682;9.022;2023-10-13T08:37:30;10.00;;;5.90;;
42802;SDS011;28447;48.682;9.022;2023-10-13T08:40:26;10.33;;;4.97;;
42802;SDS011;28447;48.682;9.022;2023-10-13T08:43:12;10.13;;;4.53;;
42802;SDS011;28447;48.682;9.022;2023-10-13T08:45:39;8.97;;;5.00;;
42802;SDS011;28447;48.682;9.022;2023-10-13T08:48:11;7.37;;;5.03;;
42802;SDS011;28447;48.682;9.022;2023-10-13T08:53:34;16.90;;;5.53;;
42802;SDS011;28447;48.682;9.022;2023-10-13T08:56:09;6.73;;;4.70;;
42802;SDS011;28447;48.682;9.022;2023-10-13T08:58:39;5.70;;;4.60;;
42802;SDS011;28447;48.682;9.022;2023-10-13T09:01:18;5.90;;;4.97;;
42802;SDS011;28447;48.682;9.022;2023-10-13T09:04:03;13.30;;;5.30;;
42802;SDS011;28447;48.682;9.022;2023-10-13T09:12:11;8.87;;;5.13;;
42802;SDS011;28447;48.682;9.022;2023-10-13T09:14:39;12.23;;;4.40;;
42802;SDS011;28447;48.682;9.022;2023-10-13T09:17:09;12.33;;;5.20;;
42802;SDS011;28447;48.682;9.022;2023-10-13T09:22:19;8.10;;;5.30;;
42802;SDS011;28447;48.682;9.022;2023-10-13T09:24:53;7.60;;;4.40;;
42802;SDS011;28447;48.682;9.022;2023-10-13T09:27:21;6.63;;;4.60;;
42802;SDS011;28447;48.682;9.022;2023-10-13T09:29:58;7.70;;;4.83;;
42802;SDS011;28447;48.682;9.022;2023-10-13T09:32:44;9.33;;;4.80;;
42802;SDS011;28447;48.682;9.022;2023-10-13T09:35:16;8.53;;;5.10;;
42802;SDS011;28447;48.682;9.022;2023-10-13T09:37:44;9.10;;;4.90;;
42802;SDS011;28447;48.682;9.022;2023-10-13T09:40:16;10.57;;;5.20;;
42802;SDS011;28447;48.682;9.022;2023-10-13T09:42:57;9.77;;;4.63;;
42802;SDS011;28447;48.682;9.022;2023-10-13T09:45:30;9.27;;;4.83;;
42802;SDS011;28447;48.682;9.022;2023-10-13T09:48:11;7.13;;;4.82;;
42802;SDS011;28447;48.682;9.022;2023-10-13T09:50:47;9.57;;;4.83;;
42802;SDS011;28447;48.682;9.022;2023-10-13T09:53:13;11.40;;;4.77;;
42802;SDS011;28447;48.682;9.022;2023-10-13T09:56:03;7.90;;;5.00;;
42802;SDS011;28447;48.682;9.022;2023-10-13T09:58:52;8.52;;;4.93;;
42802;SDS011;28447;48.682;9.022;2023-10-13T10:01:24;6.70;;;4.78;;
42802;SDS011;28447;48.682;9.022;2023-10-13T10:04:06;6.93;;;4.63;;
42802;SDS011;28447;48.682;9.022;2023-10-13T10:06:38;8.63;;;5.03;;
42802;SDS011;28447;48.682;9.022;2023-10-13T10:09:08;11.13;;;5.07;;
42802;SDS011;28447;48.682;9.022;2023-10-13T10:19:28;10.43;;;5.25;;
42802;SDS011;28447;48.682;9.022;2023-10-13T10:22:02;11.55;;;5.40;;
42802;SDS011;28447;48.682;9.022;2023-10-13T10:24:57;7.07;;;5.40;;
42802;SDS011;28447;48.682;9.022;2023-10-13T10:27:28;7.10;;;5.15;;
42802;SDS011;28447;48.682;9.022;2023-10-13T10:29:55;8.65;;;5.10;;
42802;SDS011;28447;48.682;9.022;2023-10-13T10:32:21;7.27;;;5.10;;
42802;SDS011;28447;48.682;9.022;2023-10-13T10:34:47;8.87;;;5.50;;
42802;SDS011;28447;48.682;9.022;2023-10-13T10:37:13;9.20;;;5.10;;
42802;SDS011;28447;48.682;9.022;2023-10-13T10:39:41;11.48;;;5.35;;
42802;SDS011;28447;48.682;9.022;2023-10-13T10:42:13;5.82;;;4.70;;
42802;SDS011;28447;48.682;9.022;2023-10-13T10:44:49;8.25;;;5.30;;
42802;SDS011;28447;48.682;9.022;2023-10-13T10:47:20;7.55;;;5.05;;
42802;SDS011;28447;48.682;9.022;2023-10-13T10:49:56;10.88;;;5.70;;
42802;SDS011;28447;48.682;9.022;2023-10-13T10:52:22;9.23;;;5.65;;
42802;SDS011;28447;48.682;9.022;2023-10-13T10:55:01;6.63;;;5.68;;
42802;SDS011;28447;48.682;9.022;2023-10-13T10:57:27;8.45;;;4.88;;
42802;SDS011;28447;48.682;9.022;2023-10-13T11:00:02;7.40;;;5.13;;
42802;SDS011;28447;48.682;9.022;2023-10-13T11:02:39;8.32;;;5.28;;
42802;SDS011;28447;48.682;9.022;2023-10-13T11:05:08;8.98;;;4.95;;
42802;SDS011;28447;48.682;9.022;2023-10-13T11:07:45;5.53;;;4.68;;
42802;SDS011;28447;48.682;9.022;2023-10-13T11:10:20;8.25;;;4.80;;
42802;SDS011;28447;48.682;9.022;2023-10-13T11:12:56;7.85;;;5.35;;
42802;SDS011;28447;48.682;9.022;2023-10-13T11:15:43;9.63;;;5.10;;
42802;SDS011;28447;48.682;9.022;2023-10-13T11:18:12;6.75;;;5.15;;
42802;SDS011;28447;48.682;9.022;2023-10-13T11:20:47;10.32;;;5.35;;
42802;SDS011;28447;48.682;9.022;2023-10-13T11:23:19;9.18;;;5.20;;
42802;SDS011;28447;48.682;9.022;2023-10-13T11:25:56;8.80;;;5.70;;
42802;SDS011;28447;48.682;9.022;2023-10-13T11:28:24;6.75;;;5.25;;
42802;SDS011;28447;48.682;9.022;2023-10-13T11:30:53;9.45;;;5.20;;
42802;SDS011;28447;48.682;9.022;2023-10-13T11:33:44;6.32;;;5.22;;
42802;SDS011;28447;48.682;9.022;2023-10-13T11:36:13;10.55;;;5.75;;
42802;SDS011;28447;48.682;9.022;2023-10-13T11:38:47;11.35;;;6.32;;
42802;SDS011;28447;48.682;9.022;2023-10-13T11:41:13;7.05;;;5.82;;
42802;SDS011;28447;48.682;9.022;2023-10-13T11:43:43;9.38;;;5.78;;
42802;SDS011;28447;48.682;9.022;2023-10-13T11:46:16;6.90;;;5.80;;
42802;SDS011;28447;48.682;9.022;2023-10-13T11:49:06;10.20;;;5.47;;
42802;SDS011;28447;48.682;9.022;2023-10-13T11:51:39;10.73;;;5.90;;
42802;SDS011;28447;48.682;9.022;2023-10-13T11:54:09;12.68;;;5.18;;
42802;SDS011;28447;48.682;9.022;2023-10-13T11:56:35;11.30;;;5.60;;
42802;SDS011;28447;48.682;9.022;2023-10-13T11:59:03;9.50;;;6.22;;
42802;SDS011;28447;48.682;9.022;2023-10-13T12:01:31;8.25;;;6.18;;
42802;SDS011;28447;48.682;9.022;2023-10-13T12:04:15;9.00;;;5.82;;
42802;SDS011;28447;48.682;9.022;2023-10-13T12:07:00;6.70;;;5.72;;
42802;SDS011;28447;48.682;9.022;2023-10-13T12:09:39;14.82;;;6.18;;
42802;SDS011;28447;48.682;9.022;2023-10-13T12:12:20;11.25;;;6.25;;
42802;SDS011;28447;48.682;9.022;2023-10-13T12:14:46;8.73;;;5.72;;
42802;SDS011;28447;48.682;9.022;2023-10-13T12:17:24;7.97;;;6.20;;
42802;SDS011;28447;48.682;9.022;2023-10-13T12:19:53;13.00;;;6.72;;
42802;SDS011;28447;48.682;9.022;2023-10-13T12:22:20;6.60;;;6.00;;
42802;SDS011;28447;48.682;9.022;2023-10-13T12:24:56;7.43;;;6.07;;
42802;SDS011;28447;48.682;9.022;2023-10-13T12:27:43;9.77;;;5.63;;
42802;SDS011;28447;48.682;9.022;2023-10-13T12:31:05;7.85;;;5.57;;
42802;SDS011;28447;48.682;9.022;2023-10-13T12:34:30;7.40;;;6.40;;
42802;SDS011;28447;48.682;9.022;2023-10-13T12:37:41;7.43;;;6.00;;
42802;SDS011;28447;48.682;9.022;2023-10-13T12:41:09;8.38;;;6.03;;
42802;SDS011;28447;48.682;9.022;2023-10-13T12:44:37;7.20;;;6.10;;
42802;SDS011;28447;48.682;9.022;2023-10-13T12:47:25;7.90;;;6.82;;
42802;SDS011;28447;48.682;9.022;2023-10-13T12:50:12;8.32;;;6.47;;
42802;SDS011;28447;48.682;9.022;2023-10-13T12:52:51;7.10;;;6.35;;
42802;SDS011;28447;48.682;9.022;2023-10-13T12:55:18;10.18;;;6.53;;
42802;SDS011;28447;48.682;9.022;2023-10-13T12:57:49;9.18;;;6.28;;
42802;SDS011;28447;48.682;9.022;2023-10-13T13:00:15;6.40;;;5.80;;
42802;SDS011;28447;48.682;9.022;2023-10-13T13:02:45;5.88;;;5.40;;
42802;SDS011;28447;48.682;9.022;2023-10-13T13:05:11;7.65;;;6.50;;
42802;SDS011;28447;48.682;9.022;2023-10-13T13:07:38;10.20;;;6.75;;
42802;SDS011;28447;48.682;9.022;2023-10-13T13:10:17;7.20;;;6.30;;
42802;SDS011;28447;48.682;9.022;2023-10-13T13:12:43;8.75;;;6.70;;
42802;SDS011;28447;48.682;9.022;2023-10-13T13:15:10;11.95;;;6.40;;
42802;SDS011;28447;48.682;9.022;2023-10-13T13:17:37;6.82;;;5.50;;
42802;SDS011;28447;48.682;9.022;2023-10-13T13:20:07;9.00;;;6.30;;
42802;SDS011;28447;48.682;9.022;2023-10-13T13:22:39;8.52;;;6.35;;
42802;SDS011;28447;48.682;9.022;2023-10-13T13:25:05;7.03;;;6.00;;
42802;SDS011;28447;48.682;9.022;2023-10-13T13:27:33;8.70;;;5.95;;
42802;SDS011;28447;48.682;9.022;2023-10-13T13:29:59;14.13;;;6.35;;
42802;SDS011;28447;48.682;9.022;2023-10-13T13:32:25;11.98;;;6.82;;
42802;SDS011;28447;48.682;9.022;2023-10-13T13:34:53;8.60;;;6.28;;
42802;SDS011;28447;48.682;9.022;2023-10-13T13:37:22;12.60;;;6.60;;
42802;SDS011;28447;48.682;9.022;2023-10-13T13:39:52;8.73;;;6.68;;
42802;SDS011;28447;48.682;9.022;2023-10-13T13:42:18;12.88;;;6.15;;
42802;SDS011;28447;48.682;9.022;2023-10-13T13:44:45;8.38;;;6.60;;
42802;SDS011;28447;48.682;9.022;2023-10-13T13:47:14;7.90;;;6.30;;
42802;SDS011;28447;48.682;9.022;2023-10-13T13:49:42;6.68;;;6.13;;
42802;SDS011;28447;48.682;9.022;2023-10-13T13:52:17;8.05;;;6.30;;
42802;SDS011;28447;48.682;9.022;2023-10-13T13:54:48;6.43;;;5.80;;
42802;SDS011;28447;48.682;9.022;2023-10-13T13:57:14;8.93;;;6.38;;
42802;SDS011;28447;48.682;9.022;2023-10-13T13:59:40;8.65;;;6.30;;
42802;SDS011;28447;48.682;9.022;2023-10-13T14:02:10;8.70;;;6.28;;
42802;SDS011;28447;48.682;9.022;2023-10-13T14:04:46;6.82;;;6.05;;
42802;SDS011;28447;48.682;9.022;2023-10-13T14:07:15;8.20;;;6.50;;
42802;SDS011;28447;48.682;9.022;2023-10-13T14:09:44;7.80;;;6.35;;
42802;SDS011;28447;48.682;9.022;2023-10-13T14:12:10;14.00;;;5.57;;
42802;SDS011;28447;48.682;9.022;2023-10-13T14:15:01;9.73;;;6.00;;
42802;SDS011;28447;48.682;9.022;2023-10-13T14:17:27;6.47;;;5.90;;
42802;SDS011;28447;48.682;9.022;2023-10-13T14:20:00;6.97;;;6.38;;
42802;SDS011;28447;48.682;9.022;2023-10-13T14:22:34;9.18;;;6.18;;
42802;SDS011;28447;48.682;9.022;2023-10-13T14:25:02;6.30;;;5.70;;
42802;SDS011;28447;48.682;9.022;2023-10-13T14:27:33;6.25;;;4.97;;
42802;SDS011;28447;48.682;9.022;2023-10-13T14:30:00;5.88;;;5.28;;
42802;SDS011;28447;48.682;9.022;2023-10-13T14:32:27;7.13;;;5.82;;
42802;SDS011;28447;48.682;9.022;2023-10-13T14:34:53;6.15;;;5.55;;
42802;SDS011;28447;48.682;9.022;2023-10-13T14:37:21;6.28;;;5.40;;
42802;SDS011;28447;48.682;9.022;2023-10-13T14:39:56;6.40;;;5.22;;
42802;SDS011;28447;48.682;9.022;2023-10-13T14:42:25;9.02;;;5.47;;
42802;SDS011;28447;48.682;9.022;2023-10-13T14:44:52;10.23;;;5.72;;
42802;SDS011;28447;48.682;9.022;2023-10-13T14:47:21;5.78;;;5.28;;
42802;SDS011;28447;48.682;9.022;2023-10-13T14:49:50;5.60;;;5.10;;
42802;SDS011;28447;48.682;9.022;2023-10-13T14:52:16;5.75;;;5.25;;
42802;SDS011;28447;48.682;9.022;2023-10-13T14:54:43;7.45;;;5.57;;
42802;SDS011;28447;48.682;9.022;2023-10-13T14:57:09;6.78;;;5.00;;
42802;SDS011;28447;48.682;9.022;2023-10-13T14:59:35;8.35;;;5.00;;
42802;SDS011;28447;48.682;9.022;2023-10-13T15:02:03;5.68;;;5.13;;
42802;SDS011;28447;48.682;9.022;2023-10-13T15:04:29;9.68;;;4.93;;
42802;SDS011;28447;48.682;9.022;2023-10-13T15:06:58;7.38;;;5.40;;
42802;SDS011;28447;48.682;9.022;2023-10-13T15:09:24;8.52;;;5.65;;
42802;SDS011;28447;48.682;9.022;2023-10-13T15:11:50;5.97;;;5.38;;
42802;SDS011;28447;48.682;9.022;2023-10-13T15:14:19;6.00;;;5.40;;
42802;SDS011;28447;48.682;9.022;2023-10-13T15:16:47;7.10;;;5.85;;
42802;SDS011;28447;48.682;9.022;2023-10-13T15:19:13;6.00;;;5.50;;
42802;SDS011;28447;48.682;9.022;2023-10-13T15:21:41;8.88;;;6.55;;
42802;SDS011;28447;48.682;9.022;2023-10-13T15:24:14;5.40;;;5.00;;
42802;SDS011;28447;48.682;9.022;2023-10-13T15:26:41;5.93;;;5.43;;
42802;SDS011;28447;48.682;9.022;2023-10-13T15:29:10;6.68;;;5.38;;
42802;SDS011;28447;48.682;9.022;2023-10-13T15:31:41;7.82;;;5.70;;
42802;SDS011;28447;48.682;9.022;2023-10-13T15:34:13;6.25;;;5.65;;
42802;SDS011;28447;48.682;9.022;2023-10-13T15:36:43;6.03;;;5.47;;
42802;SDS011;28447;48.682;9.022;2023-10-13T15:39:10;6.43;;;5.10;;
42802;SDS011;28447;48.682;9.022;2023-10-13T15:41:37;6.35;;;5.45;;
42802;SDS011;28447;48.682;9.022;2023-10-13T15:44:03;10.10;;;5.40;;
42802;SDS011;28447;48.682;9.022;2023-10-13T15:46:34;7.18;;;5.47;;
42802;SDS011;28447;48.682;9.022;2023-10-13T15:49:00;6.35;;;5.80;;
42802;SDS011;28447;48.682;9.022;2023-10-13T15:51:28;9.13;;;5.40;;
42802;SDS011;28447;48.682;9.022;2023-10-13T15:53:54;12.57;;;5.22;;
42802;SDS011;28447;48.682;9.022;2023-10-13T15:56:21;5.93;;;5.32;;
42802;SDS011;28447;48.682;9.022;2023-10-13T15:58:48;6.38;;;5.85;;
42802;SDS011;28447;48.682;9.022;2023-10-13T16:01:15;6.07;;;5.47;;
42802;SDS011;28447;48.682;9.022;2023-10-13T16:03:41;7.05;;;5.75;;
42802;SDS011;28447;48.682;9.022;2023-10-13T16:06:09;7.35;;;5.60;;
42802;SDS011;28447;48.682;9.022;2023-10-13T16:08:36;9.02;;;5.97;;
42802;SDS011;28447;48.682;9.022;2023-10-13T16:11:03;5.13;;;4.70;;
42802;SDS011;28447;48.682;9.022;2023-10-13T16:13:32;6.07;;;4.75;;
42802;SDS011;28447;48.682;9.022;2023-10-13T16:15:58;5.25;;;4.72;;
42802;SDS011;28447;48.682;9.022;2023-10-13T16:18:25;11.07;;;5.60;;
42802;SDS011;28447;48.682;9.022;2023-10-13T16:20:51;8.82;;;5.05;;
42802;SDS011;28447;48.682;9.022;2023-10-13T16:23:19;7.82;;;5.68;;
42802;SDS011;28447;48.682;9.022;2023-10-13T16:25:45;7.60;;;5.67;;
42802;SDS011;28447;48.682;9.022;2023-10-13T16:28:12;8.90;;;5.97;;
42802;SDS011;28447;48.682;9.022;2023-10-13T16:30:38;8.13;;;5.20;;
42802;SDS011;28447;48.682;9.022;2023-10-13T16:33:04;5.57;;;5.07;;
42802;SDS011;28447;48.682;9.022;2023-10-13T16:35:30;5.88;;;5.25;;
42802;SDS011;28447;48.682;9.022;2023-10-13T16:37:59;8.15;;;6.05;;
42802;SDS011;28447;48.682;9.022;2023-10-13T16:40:31;9.20;;;5.63;;
42802;SDS011;28447;48.682;9.022;2023-10-13T16:42:57;7.10;;;5.57;;
42802;SDS011;28447;48.682;9.022;2023-10-13T16:45:25;10.50;;;6.10;;
42802;SDS011;28447;48.682;9.022;2023-10-13T16:47:56;8.77;;;5.87;;
42802;SDS011;28447;48.682;9.022;2023-10-13T16:50:22;6.20;;;4.90;;
42802;SDS011;28447;48.682;9.022;2023-10-13T16:52:48;8.57;;;5.90;;
42802;SDS011;28447;48.682;9.022;2023-10-13T16:55:14;9.20;;;5.27;;
42802;SDS011;28447;48.682;9.022;2023-10-13T16:57:43;7.13;;;6.20;;
42802;SDS011;28447;48.682;9.022;2023-10-13T17:00:09;8.33;;;5.90;;
42802;SDS011;28447;48.682;9.022;2023-10-13T17:02:39;11.70;;;5.87;;
42802;SDS011;28447;48.682;9.022;2023-10-13T17:05:10;6.80;;;5.33;;
42802;SDS011;28447;48.682;9.022;2023-10-13T17:07:38;9.00;;;6.43;;
42802;SDS011;28447;48.682;9.022;2023-10-13T17:10:04;12.40;;;7.20;;
42802;SDS011;28447;48.682;9.022;2023-10-13T17:12:30;13.30;;;9.60;;
42802;SDS011;28447;48.682;9.022;2023-10-13T17:14:58;8.93;;;7.60;;
42802;SDS011;28447;48.682;9.022;2023-10-13T17:17:24;7.57;;;6.27;;
42802;SDS011;28447;48.682;9.022;2023-10-13T17:19:50;8.40;;;5.20;;
42802;SDS011;28447;48.682;9.022;2023-10-13T17:22:17;8.27;;;6.30;;
42802;SDS011;28447;48.682;9.022;2023-10-13T17:24:44;9.47;;;6.17;;
42802;SDS011;28447;48.682;9.022;2023-10-13T17:27:10;7.93;;;6.77;;
42802;SDS011;28447;48.682;9.022;2023-10-13T17:29:36;8.37;;;7.20;;
42802;SDS011;28447;48.682;9.022;2023-10-13T17:32:05;11.50;;;6.70;;
42802;SDS011;28447;48.682;9.022;2023-10-13T17:34:33;17.13;;;6.60;;
42802;SDS011;28447;48.682;9.022;2023-10-13T17:36:59;6.43;;;5.70;;
42802;SDS011;28447;48.682;9.022;2023-10-13T17:39:26;7.20;;;5.50;;
42802;SDS011;28447;48.682;9.022;2023-10-13T17:41:52;12.90;;;5.53;;
42802;SDS011;28447;48.682;9.022;2023-10-13T17:44:18;9.03;;;5.87;;
42802;SDS011;28447;48.682;9.022;2023-10-13T17:46:46;5.67;;;5.13;;
42802;SDS011;28447;48.682;9.022;2023-10-13T17:49:12;7.00;;;5.57;;
42802;SDS011;28447;48.682;9.022;2023-10-13T17:51:38;5.93;;;5.33;;
42802;SDS011;28447;48.682;9.022;2023-10-13T17:54:04;5.67;;;5.07;;
42802;SDS011;28447;48.682;9.022;2023-10-13T17:56:31;10.70;;;6.10;;
42802;SDS011;28447;48.682;9.022;2023-10-13T17:58:57;8.07;;;5.77;;
42802;SDS011;28447;48.682;9.022;2023-10-13T18:01:24;8.20;;;5.60;;
42802;SDS011;28447;48.682;9.022;2023-10-13T18:03:51;7.60;;;5.77;;
42802;SDS011;28447;48.682;9.022;2023-10-13T18:06:18;8.97;;;5.90;;
42802;SDS011;28447;48.682;9.022;2023-10-13T18:08:45;8.37;;;6.00;;
42802;SDS011;28447;48.682;9.022;2023-10-13T18:11:11;6.77;;;5.10;;
42802;SDS011;28447;48.682;9.022;2023-10-13T18:13:38;10.03;;;5.73;;
42802;SDS011;28447;48.682;9.022;2023-10-13T18:16:11;6.60;;;4.87;;
42802;SDS011;28447;48.682;9.022;2023-10-13T18:18:38;9.20;;;5.27;;
42802;SDS011;28447;48.682;9.022;2023-10-13T18:21:04;8.80;;;5.20;;
42802;SDS011;28447;48.682;9.022;2023-10-13T18:23:33;7.60;;;5.70;;
42802;SDS011;28447;48.682;9.022;2023-10-13T18:26:00;9.67;;;5.70;;
42802;SDS011;28447;48.682;9.022;2023-10-13T18:28:28;11.40;;;5.60;;
42802;SDS011;28447;48.682;9.022;2023-10-13T18:30:58;8.10;;;5.70;;
42802;SDS011;28447;48.682;9.022;2023-10-13T18:33:26;9.83;;;4.97;;
42802;SDS011;28447;48.682;9.022;2023-10-13T18:35:52;7.73;;;5.53;;
42802;SDS011;28447;48.682;9.022;2023-10-13T18:38:20;8.50;;;5.63;;
42802;SDS011;28447;48.682;9.022;2023-10-13T18:40:55;11.00;;;5.83;;
42802;SDS011;28447;48.682;9.022;2023-10-13T18:43:21;7.13;;;5.90;;
42802;SDS011;28447;48.682;9.022;2023-10-13T18:45:58;7.23;;;5.40;;
42802;SDS011;28447;48.682;9.022;2023-10-13T18:48:24;5.17;;;4.67;;
42802;SDS011;28447;48.682;9.022;2023-10-13T18:50:50;5.43;;;4.93;;
42802;SDS011;28447;48.682;9.022;2023-10-13T18:53:19;6.60;;;4.63;;
42802;SDS011;28447;48.682;9.022;2023-10-13T18:55:45;7.80;;;5.03;;
42802;SDS011;28447;48.682;9.022;2023-10-13T18:58:12;10.77;;;5.30;;
42802;SDS011;28447;48.682;9.022;2023-10-13T19:00:38;6.00;;;5.40;;
42802;SDS011;28447;48.682;9.022;2023-10-13T19:03:04;7.23;;;5.10;;
42802;SDS011;28447;48.682;9.022;2023-10-13T19:05:30;7.73;;;5.17;;
42802;SDS011;28447;48.682;9.022;2023-10-13T19:07:56;11.20;;;5.00;;
42802;SDS011;28447;48.682;9.022;2023-10-13T19:10:22;5.90;;;4.70;;
42802;SDS011;28447;48.682;9.022;2023-10-13T19:12:51;8.77;;;5.43;;
42802;SDS011;28447;48.682;9.022;2023-10-13T19:15:22;9.80;;;5.30;;
42802;SDS011;28447;48.682;9.022;2023-10-13T19:17:51;5.57;;;4.63;;
42802;SDS011;28447;48.682;9.022;2023-10-13T19:20:17;7.97;;;4.90;;
42802;SDS011;28447;48.682;9.022;2023-10-13T19:22:43;12.23;;;5.40;;
42802;SDS011;28447;48.682;9.022;2023-10-13T19:25:11;10.93;;;5.17;;
42802;SDS011;28447;48.682;9.022;2023-10-13T19:27:37;10.10;;;4.73;;
42802;SDS011;28447;48.682;9.022;2023-10-13T19:30:04;5.83;;;4.60;;
42802;SDS011;28447;48.682;9.022;2023-10-13T19:32:31;5.07;;;4.57;;
42802;SDS011;28447;48.682;9.022;2023-10-13T19:34:57;4.77;;;4.27;;